Time;durP1;ratioP1;P1;durP2;ratioP2;P2;SDS_P1;SDS_P2;PMS_P1;PMS_P2;Temp;Humidity;BMP_temperature;BMP_pressure;BME280_temperature;BME280_humidity;BME280_pressure;Samples;Min_cycle;Max_cycle;Signal;HPM_P1;HPM_P2
2023/06/02 00:02:08;;;;;;;18.58;3.00;;;;;;;;;;5023725;28;20025;-70
2023/06/02 00:04:37;;;;;;;16.95;2.80;;;;;;;;;;5022200;28;20750;-70
2023/06/02 00:07:03;;;;;;;16.92;2.80;;;;;;;;;;5022930;28;20546;-70
2023/06/02 00:09:32;;;;;;;22.83;3.88;;;;;;;;;;5019589;28;20402;-70
2023/06/02 00:11:58;;;;;;;13.95;2.28;;;;;;;;;;5052568;28;20033;-71
2023/06/02 00:14:24;;;;;;;16.10;2.80;;;;;;;;;;5019053;28;20088;-70
2023/06/02 00:16:51;;;;;;;10.70;3.03;;;;;;;;;;5023002;28;20036;-71
2023/06/02 00:19:18;;;;;;;24.63;4.07;;;;;;;;;;5022143;28;20025;-71
2023/06/02 00:21:48;;;;;;;16.92;3.50;;;;;;;;;;5023477;28;20772;-70
2023/06/02 00:24:14;;;;;;;15.57;2.72;;;;;;;;;;5053423;28;20036;-71
2023/06/02 00:26:40;;;;;;;18.35;3.33;;;;;;;;;;5023188;28;20188;-71
2023/06/02 00:29:06;;;;;;;21.08;3.38;;;;;;;;;;5022867;28;20022;-70
2023/06/02 00:31:32;;;;;;;18.02;2.55;;;;;;;;;;5021587;28;20124;-70
2023/06/02 00:33:58;;;;;;;14.73;2.60;;;;;;;;;;5024645;28;23328;-71
2023/06/02 00:36:24;;;;;;;21.27;2.25;;;;;;;;;;5022238;28;20061;-71
2023/06/02 00:38:50;;;;;;;12.68;2.70;;;;;;;;;;5038131;28;20038;-71
2023/06/02 00:41:16;;;;;;;18.60;2.60;;;;;;;;;;5021659;28;20041;-71
2023/06/02 00:43:42;;;;;;;25.67;3.55;;;;;;;;;;5023718;28;20418;-70
2023/06/02 00:46:08;;;;;;;13.75;3.45;;;;;;;;;;5052391;28;20033;-70
2023/06/02 00:48:34;;;;;;;14.73;2.72;;;;;;;;;;5023181;28;20042;-71
2023/06/02 00:51:01;;;;;;;21.80;3.70;;;;;;;;;;5020860;28;20053;-70
2023/06/02 00:53:27;;;;;;;16.00;2.72;;;;;;;;;;5021335;28;20034;-70
2023/06/02 00:55:54;;;;;;;21.52;4.32;;;;;;;;;;5020749;28;20040;-71
2023/06/02 00:58:21;;;;;;;16.00;3.85;;;;;;;;;;5022458;28;21988;-69
2023/06/02 01:00:47;;;;;;;16.98;2.95;;;;;;;;;;5018718;28;20048;-70
2023/06/02 01:03:17;;;;;;;16.98;2.72;;;;;;;;;;5020964;28;20130;-71
2023/06/02 01:05:44;;;;;;;12.68;2.53;;;;;;;;;;5021282;28;20049;-70
2023/06/02 01:08:12;;;;;;;14.60;2.60;;;;;;;;;;5021026;28;20037;-71
2023/06/02 01:10:38;;;;;;;14.95;2.72;;;;;;;;;;5021364;28;20034;-70
2023/06/02 01:13:04;;;;;;;15.38;2.88;;;;;;;;;;5022542;28;20478;-71
2023/06/02 01:15:31;;;;;;;9.32;2.00;;;;;;;;;;5020065;28;20052;-70
2023/06/02 01:17:57;;;;;;;16.65;3.15;;;;;;;;;;5022432;28;20041;-69
2023/06/02 01:20:23;;;;;;;14.02;3.25;;;;;;;;;;5022668;28;20062;-70
2023/06/02 01:22:56;;;;;;;19.20;2.38;;;;;;;;;;5034617;28;20025;-70
2023/06/02 01:25:23;;;;;;;17.30;2.78;;;;;;;;;;5020049;28;21423;-70
2023/06/02 01:27:50;;;;;;;14.75;2.28;;;;;;;;;;5021021;28;20029;-70
2023/06/02 01:30:17;;;;;;;12.93;2.40;;;;;;;;;;5019318;28;20042;-71
2023/06/02 01:32:48;;;;;;;12.32;2.78;;;;;;;;;;5052040;28;20042;-70
2023/06/02 01:35:15;;;;;;;16.27;3.00;;;;;;;;;;5019432;28;20030;-71
2023/06/02 01:37:44;;;;;;;11.90;2.28;;;;;;;;;;5032785;28;20083;-70
2023/06/02 01:40:12;;;;;;;20.15;3.17;;;;;;;;;;5053737;28;20041;-70
2023/06/02 01:42:39;;;;;;;16.00;2.60;;;;;;;;;;5020896;28;20104;-70
2023/06/02 01:45:07;;;;;;;14.88;2.85;;;;;;;;;;5021027;28;20030;-71
2023/06/02 01:47:33;;;;;;;15.48;2.88;;;;;;;;;;5021112;28;20018;-71
2023/06/02 01:49:59;;;;;;;18.00;3.22;;;;;;;;;;5019430;28;20080;-71
2023/06/02 01:52:25;;;;;;;14.15;2.33;;;;;;;;;;5020230;28;20088;-71
2023/06/02 01:54:51;;;;;;;16.02;2.83;;;;;;;;;;5018858;28;20049;-70
2023/06/02 01:57:17;;;;;;;17.42;3.05;;;;;;;;;;5021510;28;20030;-71
2023/06/02 01:59:43;;;;;;;13.68;2.63;;;;;;;;;;5019678;28;20045;-71
2023/06/02 02:02:09;;;;;;;19.38;3.80;;;;;;;;;;5021779;28;20029;-71
2023/06/02 02:04:35;;;;;;;19.83;3.83;;;;;;;;;;5020048;28;20498;-71
2023/06/02 02:07:01;;;;;;;11.73;2.65;;;;;;;;;;5021169;28;20044;-71
2023/06/02 02:09:28;;;;;;;18.17;3.47;;;;;;;;;;5016269;28;20050;-71
2023/06/02 02:11:54;;;;;;;17.48;3.00;;;;;;;;;;5051859;28;20377;-71
2023/06/02 02:14:20;;;;;;;13.50;2.20;;;;;;;;;;5020842;28;20028;-70
2023/06/02 02:16:49;;;;;;;14.18;2.63;;;;;;;;;;5021439;28;20121;-70
2023/06/02 02:19:16;;;;;;;17.27;3.33;;;;;;;;;;5051956;28;20483;-71
2023/06/02 02:21:42;;;;;;;15.95;2.67;;;;;;;;;;5018705;28;20034;-70
2023/06/02 02:24:08;;;;;;;11.30;2.38;;;;;;;;;;5035239;28;20087;-71
2023/06/02 02:26:35;;;;;;;17.70;2.97;;;;;;;;;;5019728;28;20043;-70
2023/06/02 02:29:01;;;;;;;19.33;3.17;;;;;;;;;;5020506;28;20029;-70
2023/06/02 02:31:27;;;;;;;18.45;3.35;;;;;;;;;;5020310;28;20117;-71
2023/06/02 02:33:53;;;;;;;13.13;2.60;;;;;;;;;;5022522;28;20384;-70
2023/06/02 02:36:19;;;;;;;19.02;2.80;;;;;;;;;;5050418;28;20037;-71
2023/06/02 02:38:47;;;;;;;22.73;3.45;;;;;;;;;;5016724;28;20559;-70
2023/06/02 02:41:13;;;;;;;24.30;4.13;;;;;;;;;;5021614;28;20494;-71
2023/06/02 02:43:39;;;;;;;19.90;3.65;;;;;;;;;;5020099;28;20037;-71
2023/06/02 02:46:05;;;;;;;15.38;2.60;;;;;;;;;;5049994;28;20056;-70
2023/06/02 02:48:31;;;;;;;14.60;2.63;;;;;;;;;;5021041;28;20467;-70
2023/06/02 02:50:57;;;;;;;14.25;2.88;;;;;;;;;;5050467;28;20061;-71
2023/06/02 02:53:24;;;;;;;16.77;3.03;;;;;;;;;;5021285;28;20113;-70
2023/06/02 02:55:51;;;;;;;14.68;2.70;;;;;;;;;;5021078;28;20103;-70
2023/06/02 02:58:18;;;;;;;13.55;3.60;;;;;;;;;;5019056;28;20036;-71
2023/06/02 03:00:45;;;;;;;22.48;3.63;;;;;;;;;;5050524;28;20049;-70
2023/06/02 03:03:12;;;;;;;18.10;2.80;;;;;;;;;;5021214;28;20117;-70
2023/06/02 03:05:41;;;;;;;27.90;3.13;;;;;;;;;;5021628;28;20059;-71
2023/06/02 03:08:09;;;;;;;19.20;2.83;;;;;;;;;;5014799;28;20033;-71
2023/06/02 03:10:35;;;;;;;16.92;2.97;;;;;;;;;;5025643;28;20132;-70
2023/06/02 03:13:02;;;;;;;20.80;3.90;;;;;;;;;;5024547;28;20037;-70
2023/06/02 03:15:28;;;;;;;15.90;2.45;;;;;;;;;;5026399;28;20056;-69
2023/06/02 03:17:55;;;;;;;22.90;4.72;;;;;;;;;;5016540;28;20476;-69
2023/06/02 03:20:21;;;;;;;13.20;3.00;;;;;;;;;;5012937;28;20068;-70
2023/06/02 03:22:48;;;;;;;14.68;2.75;;;;;;;;;;5013255;28;20056;-71
2023/06/02 03:25:14;;;;;;;19.67;4.00;;;;;;;;;;5045993;28;20494;-71
2023/06/02 03:27:40;;;;;;;19.85;3.50;;;;;;;;;;5029586;28;20447;-70
2023/06/02 03:30:06;;;;;;;15.80;3.72;;;;;;;;;;5048136;28;20034;-71
2023/06/02 03:32:32;;;;;;;30.52;3.38;;;;;;;;;;5022005;28;20069;-70
2023/06/02 03:34:59;;;;;;;14.23;2.40;;;;;;;;;;5038269;28;20037;-71
2023/06/02 03:37:25;;;;;;;14.73;2.63;;;;;;;;;;5031291;28;20037;-70
2023/06/02 03:39:51;;;;;;;13.57;3.38;;;;;;;;;;5022263;28;20087;-70
2023/06/02 03:42:17;;;;;;;22.48;3.50;;;;;;;;;;5028557;28;20034;-69
2023/06/02 03:44:43;;;;;;;26.38;3.28;;;;;;;;;;5041287;28;20037;-70
2023/06/02 03:47:09;;;;;;;23.38;2.97;;;;;;;;;;5026507;28;20037;-71
2023/06/02 03:49:36;;;;;;;16.02;4.80;;;;;;;;;;5020122;28;20034;-69
2023/06/02 03:52:02;;;;;;;14.18;3.15;;;;;;;;;;5022022;28;20092;-69
2023/06/02 03:54:28;;;;;;;19.80;4.03;;;;;;;;;;5024008;28;20034;-70
2023/06/02 03:56:54;;;;;;;15.55;2.35;;;;;;;;;;5022790;28;20029;-70
2023/06/02 03:59:20;;;;;;;21.15;3.22;;;;;;;;;;5015834;28;20498;-69
2023/06/02 04:01:46;;;;;;;18.98;3.03;;;;;;;;;;5060684;28;20471;-71
2023/06/02 04:04:12;;;;;;;23.20;4.38;;;;;;;;;;5032620;28;20068;-69
2023/06/02 04:06:41;;;;;;;19.08;3.17;;;;;;;;;;5025014;28;20116;-69
2023/06/02 04:09:11;;;;;;;22.95;3.17;;;;;;;;;;5022498;28;20040;-69
2023/06/02 04:11:37;;;;;;;15.15;3.40;;;;;;;;;;5021671;28;20037;-70
2023/06/02 04:14:03;;;;;;;28.05;3.35;;;;;;;;;;5026785;28;20068;-70
2023/06/02 04:16:29;;;;;;;15.38;2.80;;;;;;;;;;5032086;28;20040;-70
2023/06/02 04:18:55;;;;;;;20.05;3.55;;;;;;;;;;5029426;28;20372;-70
2023/06/02 04:21:21;;;;;;;18.60;2.97;;;;;;;;;;5024110;28;20041;-70
2023/06/02 04:23:47;;;;;;;20.45;3.25;;;;;;;;;;5019162;28;20021;-70
2023/06/02 04:26:13;;;;;;;23.08;5.32;;;;;;;;;;5023271;28;20121;-70
2023/06/02 04:28:39;;;;;;;20.70;3.92;;;;;;;;;;5015988;28;20034;-70
2023/06/02 04:31:09;;;;;;;18.17;4.50;;;;;;;;;;5028935;28;20060;-70
2023/06/02 04:33:36;;;;;;;17.63;3.38;;;;;;;;;;5021014;28;20028;-71
2023/06/02 04:36:03;;;;;;;17.88;3.60;;;;;;;;;;5024932;28;20112;-70
2023/06/02 04:38:29;;;;;;;20.05;3.40;;;;;;;;;;5021233;28;20057;-70
2023/06/02 04:40:57;;;;;;;19.80;4.03;;;;;;;;;;5023118;28;20512;-70
2023/06/02 04:43:23;;;;;;;22.65;4.80;;;;;;;;;;5020847;28;20439;-70
2023/06/02 04:45:49;;;;;;;19.77;4.40;;;;;;;;;;5029401;28;20548;-70
2023/06/02 04:48:15;;;;;;;24.88;3.65;;;;;;;;;;5020102;28;20072;-70
2023/06/02 04:50:41;;;;;;;16.60;3.30;;;;;;;;;;5023280;28;20045;-70
2023/06/02 04:53:07;;;;;;;17.63;4.20;;;;;;;;;;5021277;28;20041;-71
2023/06/02 04:55:33;;;;;;;20.58;3.40;;;;;;;;;;5021538;28;20026;-70
2023/06/02 04:57:59;;;;;;;16.05;4.00;;;;;;;;;;5023490;28;20037;-70
2023/06/02 05:00:25;;;;;;;15.98;4.10;;;;;;;;;;5018194;28;20049;-71
2023/06/02 05:02:51;;;;;;;14.27;3.70;;;;;;;;;;5017070;28;20021;-71
2023/06/02 05:05:17;;;;;;;19.92;2.90;;;;;;;;;;5016907;28;20652;-70
2023/06/02 05:07:43;;;;;;;24.33;3.15;;;;;;;;;;5023025;28;20045;-71
2023/06/02 05:10:10;;;;;;;16.92;2.78;;;;;;;;;;5021399;28;20034;-71
2023/06/02 05:12:38;;;;;;;21.13;3.88;;;;;;;;;;5021211;28;20041;-69
2023/06/02 05:15:04;;;;;;;22.48;3.72;;;;;;;;;;5022818;28;20029;-70
2023/06/02 05:17:31;;;;;;;28.13;4.18;;;;;;;;;;5020287;28;20017;-70
2023/06/02 05:19:57;;;;;;;23.38;3.17;;;;;;;;;;5021677;28;20074;-69
2023/06/02 05:22:23;;;;;;;16.92;2.83;;;;;;;;;;5051054;28;20061;-68
2023/06/02 05:24:49;;;;;;;28.33;3.95;;;;;;;;;;5022462;28;20029;-69
2023/06/02 05:27:15;;;;;;;22.15;4.03;;;;;;;;;;5022358;28;20061;-70
2023/06/02 05:29:41;;;;;;;21.40;3.65;;;;;;;;;;5021253;28;20252;-69
2023/06/02 05:32:08;;;;;;;21.40;3.33;;;;;;;;;;5020115;28;20112;-70
2023/06/02 05:34:34;;;;;;;28.77;4.75;;;;;;;;;;5020971;28;20033;-69
2023/06/02 05:37:00;;;;;;;13.02;3.20;;;;;;;;;;5019289;28;20034;-69
2023/06/02 05:39:26;;;;;;;20.23;3.53;;;;;;;;;;5020980;28;20025;-69
2023/06/02 05:41:52;;;;;;;20.17;3.90;;;;;;;;;;5019613;28;20044;-69
2023/06/02 05:44:18;;;;;;;23.23;4.55;;;;;;;;;;5053169;28;20037;-70
2023/06/02 05:46:44;;;;;;;25.77;3.50;;;;;;;;;;5020960;28;20041;-69
2023/06/02 05:49:10;;;;;;;28.23;3.75;;;;;;;;;;5020447;28;20037;-70
2023/06/02 05:51:36;;;;;;;32.83;3.92;;;;;;;;;;5019139;28;20053;-70
2023/06/02 05:54:02;;;;;;;22.73;3.70;;;;;;;;;;5031975;28;20493;-71
2023/06/02 05:56:28;;;;;;;22.70;4.00;;;;;;;;;;5018991;28;20351;-69
2023/06/02 05:58:55;;;;;;;34.10;3.35;;;;;;;;;;5017166;28;20475;-69
2023/06/02 06:01:21;;;;;;;20.55;4.53;;;;;;;;;;5018365;28;20033;-69
2023/06/02 06:03:47;;;;;;;34.67;4.50;;;;;;;;;;5019059;28;20033;-70
2023/06/02 06:06:13;;;;;;;25.90;4.13;;;;;;;;;;5012415;28;20037;-72
2023/06/02 06:08:39;;;;;;;18.05;3.30;;;;;;;;;;5017734;28;20045;-70
2023/06/02 06:11:05;;;;;;;26.50;7.05;;;;;;;;;;5018423;28;20060;-69
2023/06/02 06:13:31;;;;;;;29.08;6.22;;;;;;;;;;5019628;28;20260;-69
2023/06/02 06:15:57;;;;;;;27.23;5.28;;;;;;;;;;5020301;28;20048;-70
2023/06/02 06:18:23;;;;;;;23.33;3.38;;;;;;;;;;5017828;28;20033;-70
2023/06/02 06:20:49;;;;;;;26.83;3.35;;;;;;;;;;5019044;28;20041;-70
2023/06/02 06:23:15;;;;;;;22.58;4.85;;;;;;;;;;5034111;28;20037;-71
2023/06/02 06:25:42;;;;;;;16.92;3.63;;;;;;;;;;5016436;28;20030;-71
2023/06/02 06:28:08;;;;;;;18.58;3.35;;;;;;;;;;5018035;28;20061;-71
2023/06/02 06:30:35;;;;;;;23.95;4.57;;;;;;;;;;5020808;28;20065;-72
2023/06/02 06:33:01;;;;;;;28.83;7.68;;;;;;;;;;5018066;28;20030;-70
2023/06/02 06:35:27;;;;;;;26.33;4.97;;;;;;;;;;5021420;28;20156;-72
2023/06/02 06:37:53;;;;;;;28.52;4.05;;;;;;;;;;5018661;28;20100;-72
2023/06/02 06:40:19;;;;;;;30.25;6.00;;;;;;;;;;5019725;28;20042;-71
2023/06/02 06:42:45;;;;;;;31.52;5.32;;;;;;;;;;5017844;28;21614;-70
2023/06/02 06:45:11;;;;;;;23.13;4.20;;;;;;;;;;5017943;28;20041;-71
2023/06/02 06:47:37;;;;;;;25.35;4.68;;;;;;;;;;5035325;28;20041;-70
2023/06/02 06:50:03;;;;;;;18.75;4.00;;;;;;;;;;5018753;28;20040;-70
2023/06/02 06:52:29;;;;;;;23.00;3.97;;;;;;;;;;5024118;28;20048;-71
2023/06/02 06:54:55;;;;;;;25.42;4.43;;;;;;;;;;5020818;28;20029;-70
2023/06/02 06:57:21;;;;;;;29.23;4.03;;;;;;;;;;5022399;28;20087;-72
2023/06/02 06:59:47;;;;;;;30.00;5.57;;;;;;;;;;5051252;28;20109;-72
2023/06/02 07:02:14;;;;;;;26.48;5.38;;;;;;;;;;5021495;28;20040;-75
2023/06/02 07:04:40;;;;;;;24.95;5.65;;;;;;;;;;5028962;28;20372;-73
2023/06/02 07:07:06;;;;;;;26.13;5.40;;;;;;;;;;5034093;28;20538;-70
2023/06/02 07:09:32;;;;;;;25.15;5.32;;;;;;;;;;5031183;28;20037;-71
2023/06/02 07:11:58;;;;;;;32.00;5.15;;;;;;;;;;5027517;28;20487;-74
2023/06/02 07:14:25;;;;;;;32.03;4.85;;;;;;;;;;5024972;28;20369;-73
2023/06/02 07:16:54;;;;;;;31.25;6.00;;;;;;;;;;5024898;28;20091;-72
2023/06/02 07:19:20;;;;;;;30.85;4.65;;;;;;;;;;5020994;28;20030;-72
2023/06/02 07:21:46;;;;;;;33.33;5.25;;;;;;;;;;5021398;28;20091;-73
2023/06/02 07:24:12;;;;;;;37.20;5.47;;;;;;;;;;5021535;28;20426;-72
2023/06/02 07:26:38;;;;;;;43.83;6.28;;;;;;;;;;5021361;28;20567;-70
2023/06/02 07:29:04;;;;;;;30.58;5.75;;;;;;;;;;5047993;28;20083;-70
2023/06/02 07:31:30;;;;;;;22.60;3.60;;;;;;;;;;5066819;28;20037;-69
2023/06/02 07:33:57;;;;;;;19.95;3.97;;;;;;;;;;5029598;28;20657;-73
2023/06/02 07:36:24;;;;;;;18.88;4.25;;;;;;;;;;5065891;28;20083;-72
2023/06/02 07:38:50;;;;;;;26.40;3.75;;;;;;;;;;5033360;28;20113;-72
2023/06/02 07:41:16;;;;;;;30.00;4.80;;;;;;;;;;5032934;28;20025;-73
2023/06/02 07:43:42;;;;;;;27.92;4.82;;;;;;;;;;5031440;28;20116;-72
2023/06/02 07:46:09;;;;;;;19.35;3.67;;;;;;;;;;5033862;28;20030;-72
2023/06/02 07:48:35;;;;;;;23.27;4.57;;;;;;;;;;5029302;28;20026;-73
2023/06/02 07:51:02;;;;;;;18.08;4.93;;;;;;;;;;5026180;28;20067;-72
2023/06/02 07:53:29;;;;;;;19.38;4.88;;;;;;;;;;5030201;28;20515;-72
2023/06/02 07:55:55;;;;;;;21.95;3.88;;;;;;;;;;5029268;28;21092;-71
2023/06/02 07:58:21;;;;;;;20.27;4.82;;;;;;;;;;5020510;28;20048;-75
2023/06/02 08:00:47;;;;;;;10.73;3.38;;;;;;;;;;5018000;28;20049;-70
2023/06/02 08:03:13;;;;;;;12.38;3.17;;;;;;;;;;5023239;28;20510;-71
2023/06/02 08:05:39;;;;;;;20.80;4.68;;;;;;;;;;5020839;28;20033;-71
2023/06/02 08:08:05;;;;;;;20.23;4.55;;;;;;;;;;5020278;28;20029;-72
2023/06/02 08:10:31;;;;;;;34.38;11.10;;;;;;;;;;5020793;28;20862;-72
2023/06/02 08:12:57;;;;;;;26.38;5.32;;;;;;;;;;5020105;28;20112;-71
2023/06/02 08:15:23;;;;;;;16.80;4.20;;;;;;;;;;5018136;28;20095;-72
2023/06/02 08:17:49;;;;;;;19.70;3.97;;;;;;;;;;5025621;28;20061;-72
2023/06/02 08:20:18;;;;;;;17.08;3.38;;;;;;;;;;5019925;28;20073;-72
2023/06/02 08:22:44;;;;;;;16.02;3.35;;;;;;;;;;5028309;28;20042;-71
2023/06/02 08:25:12;;;;;;;19.15;3.50;;;;;;;;;;5023497;28;20033;-71
2023/06/02 08:27:38;;;;;;;15.02;2.67;;;;;;;;;;5020333;28;20029;-72
2023/06/02 08:30:05;;;;;;;21.98;4.60;;;;;;;;;;5020924;28;20057;-72
2023/06/02 08:32:31;;;;;;;16.92;3.22;;;;;;;;;;5017361;28;20708;-72
2023/06/02 08:35:01;;;;;;;20.08;3.10;;;;;;;;;;5019120;28;20116;-72
2023/06/02 08:37:27;;;;;;;17.35;3.10;;;;;;;;;;5018196;28;20847;-72
2023/06/02 08:39:53;;;;;;;16.65;3.83;;;;;;;;;;5022347;28;20064;-71
2023/06/02 08:42:22;;;;;;;20.35;3.65;;;;;;;;;;5018727;28;20083;-72
2023/06/02 08:44:48;;;;;;;17.08;3.10;;;;;;;;;;5054767;28;20033;-72
2023/06/02 08:47:14;;;;;;;14.70;2.83;;;;;;;;;;5020458;28;20388;-72
2023/06/02 08:49:45;;;;;;;18.75;2.83;;;;;;;;;;5022531;28;20450;-72
2023/06/02 08:52:13;;;;;;;19.57;2.63;;;;;;;;;;5019287;28;20038;-73
2023/06/02 08:54:40;;;;;;;15.38;3.20;;;;;;;;;;5020409;28;20060;-72
2023/06/02 08:57:07;;;;;;;18.23;3.60;;;;;;;;;;5018226;28;20480;-72
2023/06/02 08:59:34;;;;;;;16.83;3.10;;;;;;;;;;5021967;28;20103;-72
2023/06/02 09:02:00;;;;;;;15.27;3.10;;;;;;;;;;5021390;28;20076;-72
2023/06/02 09:04:27;;;;;;;15.73;3.53;;;;;;;;;;5019279;28;20034;-71
2023/06/02 09:07:12;;;;;;;15.35;3.17;;;;;;;;;;5023535;28;20116;-72
2023/06/02 09:09:41;;;;;;;19.50;3.55;;;;;;;;;;5018692;28;20037;-72
2023/06/02 09:12:08;;;;;;;13.52;2.63;;;;;;;;;;5020552;28;20427;-71
2023/06/02 09:14:34;;;;;;;17.63;2.70;;;;;;;;;;5020647;28;20633;-72
2023/06/02 09:17:00;;;;;;;20.15;2.47;;;;;;;;;;5019710;28;20033;-72
2023/06/02 09:19:26;;;;;;;9.88;2.70;;;;;;;;;;5022091;28;20037;-72
2023/06/02 09:21:53;;;;;;;10.15;2.40;;;;;;;;;;5019561;28;20052;-71
2023/06/02 09:24:37;;;;;;;10.75;2.17;;;;;;;;;;5020470;28;20379;-71
2023/06/02 09:27:03;;;;;;;10.63;2.83;;;;;;;;;;5018340;28;20120;-72
2023/06/02 09:29:29;;;;;;;11.02;2.38;;;;;;;;;;5020594;28;20061;-71
2023/06/02 09:31:58;;;;;;;13.82;1.90;;;;;;;;;;5021318;28;20048;-72
2023/06/02 09:34:25;;;;;;;6.93;1.83;;;;;;;;;;5019389;28;20030;-71
2023/06/02 09:36:52;;;;;;;12.52;2.30;;;;;;;;;;5021772;28;20419;-71
2023/06/02 09:39:43;;;;;;;13.93;2.55;;;;;;;;;;5023700;28;20472;-72
2023/06/02 09:42:11;;;;;;;8.40;2.17;;;;;;;;;;5016409;28;20706;-72
2023/06/02 09:44:37;;;;;;;11.55;1.88;;;;;;;;;;5018957;28;20048;-72
2023/06/02 09:47:18;;;;;;;5.07;1.90;;;;;;;;;;5019598;28;20037;-72
2023/06/02 09:49:44;;;;;;;8.75;1.77;;;;;;;;;;5020795;28;20052;-72
2023/06/02 09:52:13;;;;;;;7.53;1.67;;;;;;;;;;5020146;28;20053;-72
2023/06/02 09:54:40;;;;;;;6.05;2.08;;;;;;;;;;5020420;28;20380;-71
2023/06/02 09:57:06;;;;;;;8.65;1.63;;;;;;;;;;5051282;28;20534;-71
2023/06/02 09:59:33;;;;;;;9.75;2.33;;;;;;;;;;5018211;28;20346;-74
2023/06/02 10:01:59;;;;;;;7.70;1.40;;;;;;;;;;5018744;28;20045;-71
2023/06/02 10:04:25;;;;;;;8.60;2.13;;;;;;;;;;5035806;28;20033;-71
2023/06/02 10:07:13;;;;;;;18.25;5.97;;;;;;;;;;5021829;28;20029;-70
2023/06/02 10:09:42;;;;;;;8.23;2.60;;;;;;;;;;5018220;28;20065;-73
2023/06/02 10:12:17;;;;;;;6.70;1.27;;;;;;;;;;5016570;28;20029;-72
2023/06/02 10:15:03;;;;;;;8.07;1.75;;;;;;;;;;5019580;28;20364;-70
2023/06/02 10:17:36;;;;;;;6.70;1.40;;;;;;;;;;5019970;28;20033;-70
2023/06/02 10:20:14;;;;;;;5.10;1.20;;;;;;;;;;5018690;28;20056;-71
2023/06/02 10:22:52;;;;;;;3.83;1.10;;;;;;;;;;5019912;28;20021;-72
2023/06/02 10:25:38;;;;;;;3.90;1.33;;;;;;;;;;5016677;28;20278;-71
2023/06/02 10:28:06;;;;;;;5.95;1.30;;;;;;;;;;5019074;28;20108;-70
2023/06/02 10:30:34;;;;;;;6.68;1.02;;;;;;;;;;5020449;28;20545;-69
2023/06/02 10:33:00;;;;;;;5.90;1.15;;;;;;;;;;5020361;28;20495;-70
2023/06/02 10:35:46;;;;;;;3.90;1.35;;;;;;;;;;5020737;28;20053;-70
2023/06/02 10:38:38;;;;;;;4.82;1.23;;;;;;;;;;5019154;28;20119;-70
2023/06/02 10:41:05;;;;;;;5.88;2.50;;;;;;;;;;5019687;28;20048;-71
2023/06/02 10:43:32;;;;;;;5.60;1.38;;;;;;;;;;5060040;28;20021;-69
2023/06/02 10:46:17;;;;;;;7.78;1.90;;;;;;;;;;5026749;28;20424;-71
2023/06/02 10:48:43;;;;;;;7.35;1.63;;;;;;;;;;5029561;28;20395;-70
2023/06/02 10:51:10;;;;;;;4.55;1.48;;;;;;;;;;5023275;28;20423;-71
2023/06/02 10:53:56;;;;;;;4.93;1.48;;;;;;;;;;5025565;28;20105;-73
2023/06/02 10:56:40;;;;;;;7.35;1.27;;;;;;;;;;5024886;28;20033;-72
2023/06/02 10:59:07;;;;;;;6.30;1.77;;;;;;;;;;5026697;28;20037;-73
2023/06/02 11:01:45;;;;;;;6.35;1.20;;;;;;;;;;5017223;28;20030;-73
2023/06/02 11:04:27;;;;;;;4.53;1.00;;;;;;;;;;5015476;28;20087;-72
2023/06/02 11:07:18;;;;;;;6.45;1.10;;;23.20;99.90;;;;;;5049264;28;20096;-72
2023/06/02 11:09:48;;;;;;;10.05;1.00;;;;;;;;;;5019664;28;20029;-73
2023/06/02 11:12:15;;;;;;;4.80;0.95;;;;;;;;;;5018490;28;20030;-71
2023/06/02 11:15:04;;;;;;;5.20;1.20;;;;;;;;;;5026771;28;20100;-72
2023/06/02 11:17:37;;;;;;;4.20;1.05;;;;;;;;;;5029476;28;20034;-72
2023/06/02 11:20:07;;;;;;;3.05;1.02;;;;;;;;;;5023069;28;20021;-72
2023/06/02 11:22:33;;;;;;;4.90;0.80;;;;;;;;;;5020519;28;20053;-73
2023/06/02 11:25:01;;;;;;;2.05;0.90;;;;;;;;;;5029885;28;20017;-72
2023/06/02 11:27:44;;;;;;;3.20;0.85;;;;;;;;;;5017600;28;20026;-73
2023/06/02 11:30:11;;;;;;;5.20;0.90;;;;;;;;;;5021374;28;20045;-73
2023/06/02 11:32:38;;;;;;;2.15;0.70;;;;;;;;;;5022062;28;20052;-72
2023/06/02 11:35:06;;;;;;;5.50;1.08;;;;;;;;;;5036281;28;20041;-72
2023/06/02 11:37:32;;;;;;;5.07;1.38;;;;;;;;;;5023143;28;20030;-73
2023/06/02 11:39:58;;;;;;;2.55;0.90;;;;;;;;;;5023034;28;20029;-72
2023/06/02 11:42:37;;;;;;;8.35;0.85;;;;;;;;;;5021579;28;20379;-72
2023/06/02 11:45:03;;;;;;;3.88;1.00;;;;;;;;;;5022536;28;20410;-73
2023/06/02 11:47:30;;;;;;;3.42;0.90;;;;;;;;;;5042261;28;20398;-71
2023/06/02 11:49:56;;;;;;;1.65;0.80;;;;;;;;;;5045198;28;20139;-72
2023/06/02 11:52:22;;;;;;;4.88;0.95;;;;;;;;;;5018058;28;20065;-72
2023/06/02 11:54:49;;;;;;;3.08;0.93;;;;;;;;;;5019903;28;20044;-72
2023/06/02 11:57:24;;;;;;;1.98;0.77;;;;;;;;;;5024545;28;20030;-73
2023/06/02 12:00:09;;;;;;;4.38;1.30;;;;;;;;;;5025087;28;20026;-72
2023/06/02 12:02:36;;;;;;;2.95;1.35;;;;;;;;;;5033267;28;20049;-73
2023/06/02 12:05:02;;;;;;;3.35;0.75;;;;;;;;;;5027368;28;20061;-73
2023/06/02 12:07:29;;;;;;;6.50;1.50;;;;;;;;;;5049541;28;20029;-73
2023/06/02 12:09:55;;;;;;;2.78;0.95;;;;;;;;;;5032126;28;20032;-72
2023/06/02 12:12:21;;;;;;;4.88;0.98;;;;;;;;;;5053195;28;20096;-72
2023/06/02 12:14:47;;;;;;;8.90;1.13;;;;;;;;;;5031401;28;20045;-72
2023/06/02 12:17:14;;;;;;;4.68;0.98;;;;;;;;;;5038164;28;20034;-72
2023/06/02 12:19:41;;;;;;;3.10;0.85;;;;;;;;;;5025389;28;20029;-72
2023/06/02 12:22:10;;;;;;;3.65;0.93;;;;;;;;;;5020938;28;20059;-72
2023/06/02 12:24:40;;;;;;;3.42;0.85;;;;;;;;;;5018906;28;20026;-72
2023/06/02 12:27:10;;;;;;;7.25;1.30;;;;;;;;;;5022552;28;20104;-72
2023/06/02 12:29:37;;;;;;;4.70;1.00;;;;;;;;;;5021298;28;20498;-72
2023/06/02 12:32:05;;;;;;;6.22;1.92;;;;;;;;;;5023116;28;20499;-72
2023/06/02 12:34:31;;;;;;;5.85;1.05;;;;;;;;;;5023110;28;20034;-72
2023/06/02 12:36:58;;;;;;;5.70;1.55;;;;;;;;;;5027748;28;20040;-72
2023/06/02 12:39:24;;;;;;;6.53;1.20;;;;;;;;;;5021407;28;20057;-71
2023/06/02 12:41:50;;;;;;;5.60;1.30;;;;;;;;;;5019526;28;20041;-72
2023/06/02 12:44:16;;;;;;;5.40;1.38;;;;;;;;;;5018023;28;20553;-72
2023/06/02 12:46:43;;;;;;;4.50;1.48;;;;;;;;;;5019393;28;20037;-73
2023/06/02 12:49:09;;;;;;;6.60;1.73;;;;;;;;;;5023841;28;20040;-73
2023/06/02 12:51:35;;;;;;;7.78;2.00;;;;;;;;;;5019357;28;20054;-73
2023/06/02 12:54:01;;;;;;;8.82;2.05;;;;;;;;;;5027989;28;20026;-72
2023/06/02 12:56:27;;;;;;;9.95;2.28;;;;;;;;;;5030731;28;20510;-71
2023/06/02 12:58:54;;;;;;;10.27;1.73;;;;;;;;;;5028497;28;20112;-71
2023/06/02 13:01:24;;;;;;;8.80;1.67;;;;;;;;;;5038150;28;20040;-72
2023/06/02 13:03:52;;;;;;;9.52;1.52;;;;;;;;;;5051969;28;20033;-72
2023/06/02 13:06:18;;;;;;;6.45;1.75;;;;;;;;;;5024944;28;20051;-72
2023/06/02 13:08:44;;;;;;;5.35;1.90;;;;;;;;;;5034531;28;20045;-71
2023/06/02 13:11:11;;;;;;;7.90;2.08;;;;;;;;;;5022163;28;20381;-72
2023/06/02 13:13:37;;;;;;;5.50;1.80;;;;;;;;;;5022188;28;20029;-72
2023/06/02 13:16:03;;;;;;;7.40;2.03;;;;;;;;;;5025856;28;20024;-74
2023/06/02 13:18:29;;;;;;;5.97;1.73;;;;;;;;;;5042902;28;20037;-73
2023/06/02 13:20:55;;;;;;;9.98;2.22;;;;;;;;;;5031415;28;20100;-73
2023/06/02 13:23:21;;;;;;;12.73;3.40;;;;;;;;;;5019154;28;20211;-71
2023/06/02 13:25:48;;;;;;;4.95;1.98;;;;;;;;;;5026940;28;20029;-69
2023/06/02 13:28:14;;;;;;;6.35;2.53;;;;;;;;;;5027152;28;20479;-70
2023/06/02 13:30:40;;;;;;;7.53;3.58;;;;;;;;;;5025226;28;20029;-72
2023/06/02 13:33:06;;;;;;;7.30;2.13;;;;;;;;;;5029614;28;20444;-72
2023/06/02 13:35:32;;;;;;;16.02;4.90;;;;;;;;;;5031974;28;20029;-71
2023/06/02 13:37:58;;;;;;;12.02;2.28;;;;;;;;;;5027571;28;20033;-71
2023/06/02 13:40:28;;;;;;;7.97;1.80;;;;;;;;;;5020650;28;20068;-71
2023/06/02 13:42:54;;;;;;;5.68;1.90;;;;;;;;;;5019209;28;20017;-71
2023/06/02 13:45:20;;;;;;;8.95;2.17;;;;;;;;;;5021461;28;20029;-71
2023/06/02 13:47:46;;;;;;;5.85;1.88;;;;;;;;;;5055329;28;20539;-70
2023/06/02 13:50:12;;;;;;;4.47;1.70;;;;;;;;;;5026133;28;20040;-72
2023/06/02 13:52:38;;;;;;;6.75;1.90;;;;;;;;;;5026272;28;20053;-72
2023/06/02 13:55:05;;;;;;;5.88;1.70;;;;;;;;;;5021775;28;20037;-72
2023/06/02 13:57:31;;;;;;;12.57;2.65;;;;;;;;;;5016097;28;20038;-71
2023/06/02 13:59:57;;;;;;;6.28;2.13;;;;;;;;;;5019826;28;20544;-71
2023/06/02 14:02:23;;;;;;;8.20;2.08;;;;;;;;;;5033866;28;20189;-71
2023/06/02 14:04:49;;;;;;;15.57;7.47;;;;;;;;;;5022421;28;20105;-71
2023/06/02 14:07:15;;;;;;;6.97;3.00;;;;;;;;;;5027415;28;20034;-71
2023/06/02 14:09:41;;;;;;;8.18;1.73;;;;;;;;;;5027464;28;20421;-72
2023/06/02 14:12:07;;;;;;;7.70;2.15;;;;;;;;;;5026949;28;20459;-71
2023/06/02 14:14:33;;;;;;;6.53;2.58;;;;;;;;;;5030497;28;20029;-71
2023/06/02 14:16:59;;;;;;;5.38;2.00;;;;;;;;;;5030886;28;20102;-71
2023/06/02 14:19:25;;;;;;;9.98;2.50;;;;;;;;;;5024528;28;20531;-70
2023/06/02 14:21:51;;;;;;;9.50;2.45;;;;;;;;;;5017436;28;20063;-71
2023/06/02 14:24:17;;;;;;;9.27;2.15;;;;;;;;;;5031558;28;20052;-71
2023/06/02 14:26:43;;;;;;;11.63;2.80;;;;;;;;;;5016970;28;20386;-71
2023/06/02 14:29:10;;;;;;;6.60;2.10;;;;;;;;;;5043191;28;20052;-72
2023/06/02 14:31:36;;;;;;;6.32;2.10;;;;;;;;;;5048692;28;20148;-69
2023/06/02 14:34:03;;;;;;;8.65;2.30;;;;;;;;;;5051718;28;20685;-69
2023/06/02 14:36:29;;;;;;;5.03;2.00;;;;;;;;;;5020520;28;20460;-69